Middle Georgia Regional Airport
KMCN : now visible

Airfield :











YOU CAN JOIN US ON...

 
LOGIN :

Register | Disclaimer

   EN    FR    IT 

 









Legend :    VFR   Marginal VFR   IFR   Intensive IFR   Very Intensive IFR
Visi :
Ceiling :
>= 8 km
>= 3000ft
5 to 8 km
1000 to 3000 ft
1500m to 5 km
500 to 1000 ft
800 to 1500m
200 to 500 ft
< 800m
< 200 ft
Symbols :   Thunderstorms  Fog  Heavy snow  Heavy precipitations  Wind > 20 kt






- Airport Elevation : 354 ft
- IATA code : MCN


KMCN - Middle Georgia Regional

CURRENT METAR :
  • 071553Z 23003KT 10SM SCT022 BKN030 29/23 A3025 RMK AO2 SLP238 T02890228

EXPIRED METARs :
  • 071453Z 08005KT 10SM BKN022 BKN028 28/23 A3025 RMK AO2 SLP238 T02830228 51006
  • 071446Z 08004KT 10SM BKN022 28/23 A3025 RMK AO2 T02830228
  • 071353Z VRB03KT 10SM FEW006 26/22 A3025 RMK AO2 SLP238 T02560222
  • 071338Z 04004KT 10SM FEW006 24/22 A3025 RMK AO2 T02440222

TAF KMCN
Valid from the 07 at 16:00 until the 08 at 12:00 UTC


071616Z 0716/0812 11004KT P6SM VCSH SCT025
FM071800 10006KT P6SM VCSH BKN035
TEMPO 0719/0723 VRB15G25KT 4SM TSRA BKN035CB
FM080200 00000KT P6SM SCT050 SCT080
FM080900 00000KT 3SM BR BKN006
KZTL FIR / North America



MET'MAP, your aeronautical weather chart ! - Copyright ORBIFLY December 2007 - Disclaimer

ORBIFLY MET'MAP TEAM :

Programming & Development : Alexandra Zaïnal
Original concept : Baudouin d'Aumeries
Technical & hardware support : Manuel Goepfert
Assistance : Marc-Olivier Méhu




SOURCES & CREDITS :

   NOAA       Earth
Advisory